Time;durP1;ratioP1;P1;durP2;ratioP2;P2;SDS_P1;SDS_P2;PMS_P1;PMS_P2;Temp;Humidity;BMP_temperature;BMP_pressure;BME280_temperature;BME280_humidity;BME280_pressure;Samples;Min_cycle;Max_cycle;Signal;HPM_P1;HPM_P2
2024/01/08 00:03:38;;;;;;;1.70;1.60;;;19.50;43.20;;;;;;8327992;28;20041;-47
2024/01/08 00:07:39;;;;;;;2.15;1.48;;;19.60;42.70;;;;;;8327933;28;20047;-46
2024/01/08 00:11:40;;;;;;;2.05;1.75;;;19.70;42.30;;;;;;8328648;28;20499;-46
2024/01/08 00:15:41;;;;;;;2.22;1.70;;;19.70;42.10;;;;;;8327753;28;20038;-46
2024/01/08 00:19:42;;;;;;;1.73;1.63;;;19.80;41.90;;;;;;8326227;28;20029;-48
2024/01/08 00:23:42;;;;;;;1.92;1.55;;;19.80;41.70;;;;;;8327541;28;20121;-47
2024/01/08 00:27:43;;;;;;;1.80;1.30;;;19.80;41.60;;;;;;8327083;28;20057;-47
2024/01/08 00:31:44;;;;;;;1.83;1.70;;;19.80;41.50;;;;;;8327282;28;20037;-47
2024/01/08 00:35:45;;;;;;;2.15;1.77;;;19.80;41.40;;;;;;8327130;28;20033;-46
2024/01/08 00:39:46;;;;;;;;;;;19.80;41.30;;;;;;8327367;28;20438;-46
2024/01/08 00:43:46;;;;;;;1.50;1.40;;;19.80;41.80;;;;;;8326839;28;20117;-48
2024/01/08 00:47:47;;;;;;;2.83;1.95;;;19.50;42.80;;;;;;8326762;28;20038;-46
2024/01/08 00:51:48;;;;;;;1.35;1.25;;;19.50;43.20;;;;;;8326811;28;20033;-45
2024/01/08 00:55:49;;;;;;;2.15;1.70;;;19.50;42.70;;;;;;8326549;28;20065;-48
2024/01/08 00:59:49;;;;;;;1.75;1.50;;;19.60;42.30;;;;;;8326554;28;20434;-47
2024/01/08 01:03:50;;;;;;;1.80;1.40;;;19.70;42.10;;;;;;8326743;28;20033;-46
2024/01/08 01:07:51;;;;;;;1.88;1.67;;;19.70;41.90;;;;;;8332017;28;20579;-46
2024/01/08 01:11:51;;;;;;;2.08;1.60;;;19.70;41.70;;;;;;8333269;28;20034;-46
2024/01/08 01:15:52;;;;;;;2.22;1.50;;;19.70;41.60;;;;;;8334021;28;20039;-47
2024/01/08 01:19:53;;;;;;;1.27;1.17;;;19.70;41.50;;;;;;8333027;28;20483;-46
2024/01/08 01:23:54;;;;;;;1.52;1.40;;;19.70;41.40;;;;;;8332804;28;20034;-47
2024/01/08 01:27:54;;;;;;;1.90;1.60;;;19.80;41.40;;;;;;8332935;28;20026;-47
2024/01/08 01:31:55;;;;;;;1.50;1.25;;;19.70;41.70;;;;;;8332948;28;20045;-46
2024/01/08 01:35:56;;;;;;;1.65;1.42;;;19.50;42.80;;;;;;8332728;28;20026;-46
2024/01/08 01:39:57;;;;;;;1.80;1.40;;;19.50;43.00;;;;;;8331200;28;20038;-47
2024/01/08 01:43:58;;;;;;;1.40;1.20;;;19.50;42.50;;;;;;8332273;28;20037;-47
2024/01/08 01:47:58;;;;;;;1.15;1.05;;;19.60;42.20;;;;;;8332197;28;20049;-46
2024/01/08 01:51:59;;;;;;;2.10;1.67;;;19.70;41.90;;;;;;8331121;28;20061;-47
2024/01/08 01:56:00;;;;;;;1.70;1.40;;;19.70;41.70;;;;;;8332343;28;20082;-48
2024/01/08 02:00:01;;;;;;;;;;;19.70;41.60;;;;;;8331098;28;20438;-47
2024/01/08 02:04:03;;;;;;;1.57;1.47;;;19.70;41.50;;;;;;8331951;28;19932;-48
2024/01/08 02:08:06;;;;;;;2.03;1.48;;;19.70;41.40;;;;;;8331946;28;20065;-46
2024/01/08 02:12:07;;;;;;;1.77;1.50;;;19.70;41.30;;;;;;8330532;28;20022;-47
2024/01/08 02:16:08;;;;;;;1.35;1.23;;;19.70;41.20;;;;;;8331151;28;20506;-47
2024/01/08 02:20:09;;;;;;;1.70;1.42;;;19.70;41.80;;;;;;8330061;28;20368;-47
2024/01/08 02:24:10;;;;;;;2.05;1.60;;;19.50;42.90;;;;;;8331334;28;20499;-46
2024/01/08 02:28:10;;;;;;;2.03;1.42;;;19.40;43.00;;;;;;8330994;28;20022;-46
2024/01/08 02:32:13;;;;;;;1.60;1.50;;;19.50;42.50;;;;;;8329828;28;20391;-46
2024/01/08 02:36:14;;;;;;;1.52;1.17;;;19.60;42.10;;;;;;8331143;28;20491;-47
2024/01/08 02:40:15;;;;;;;1.42;1.15;;;19.60;41.90;;;;;;8330636;28;20446;-47
2024/01/08 02:44:15;;;;;;;2.03;1.40;;;19.60;41.70;;;;;;8330608;28;20029;-47
2024/01/08 02:48:16;;;;;;;1.30;1.20;;;19.60;41.60;;;;;;8330573;28;20035;-46
2024/01/08 02:52:17;;;;;;;1.33;1.20;;;19.70;41.50;;;;;;8330265;28;20033;-46
2024/01/08 02:56:19;;;;;;;1.35;1.23;;;19.60;41.30;;;;;;8330520;28;20029;-46
2024/01/08 03:00:20;;;;;;;1.60;1.17;;;19.70;41.30;;;;;;8330140;28;20115;-47
2024/01/08 03:04:21;;;;;;;1.95;1.50;;;19.70;41.20;;;;;;8329966;28;20111;-48
2024/01/08 03:08:21;;;;;;;1.40;1.30;;;19.60;41.80;;;;;;8329983;28;20097;-47
2024/01/08 03:12:23;;;;;;;1.30;1.17;;;19.40;42.90;;;;;;8329858;28;20041;-46
2024/01/08 03:16:24;;;;;;;1.33;1.10;;;19.30;43.40;;;;;;8328974;28;20065;-46
2024/01/08 03:20:25;;;;;;;1.63;1.30;;;19.40;43.30;;;;;;8329854;28;20041;-47
2024/01/08 03:24:26;;;;;;;1.45;1.35;;;19.30;43.40;;;;;;8329351;28;20030;-46
2024/01/08 03:28:26;;;;;;;1.27;1.08;;;19.30;43.40;;;;;;8329258;28;20128;-46
2024/01/08 03:32:27;;;;;;;1.33;1.23;;;19.30;44.00;;;;;;8329372;28;20040;-47
2024/01/08 03:36:28;;;;;;;1.65;1.10;;;19.30;43.50;;;;;;8329050;28;20041;-46
2024/01/08 03:40:28;;;;;;;1.30;1.20;;;19.30;43.50;;;;;;8329056;28;20390;-46
2024/01/08 03:44:29;;;;;;;1.63;1.40;;;19.20;43.60;;;;;;8329037;28;20092;-48
2024/01/08 03:48:30;;;;;;;1.73;1.48;;;19.20;43.60;;;;;;8328387;28;20033;-47
2024/01/08 03:52:31;;;;;;;1.17;1.08;;;19.20;43.70;;;;;;8327468;28;20040;-46
2024/01/08 03:56:31;;;;;;;1.10;1.00;;;19.20;43.70;;;;;;8328766;28;20033;-46
2024/01/08 04:00:32;;;;;;;2.17;1.30;;;19.20;43.80;;;;;;8328070;28;20446;-46
2024/01/08 04:04:33;;;;;;;1.10;1.00;;;19.20;43.90;;;;;;8328104;28;20077;-46
2024/01/08 04:08:34;;;;;;;1.63;1.30;;;19.20;43.90;;;;;;8328037;28;20104;-48
2024/01/08 04:12:34;;;;;;;1.70;1.40;;;19.20;43.90;;;;;;8327790;28;20112;-47
2024/01/08 04:16:37;;;;;;;1.10;1.00;;;19.20;43.90;;;;;;8328026;28;20049;-45
2024/01/08 04:20:38;;;;;;;1.45;1.30;;;19.20;43.90;;;;;;8327788;28;20391;-47
2024/01/08 04:24:38;;;;;;;1.48;1.15;;;19.20;44.00;;;;;;8327505;28;20030;-46
2024/01/08 04:28:39;;;;;;;1.58;1.13;;;19.10;44.00;;;;;;8327476;28;20079;-47
2024/01/08 04:32:40;;;;;;;1.58;1.13;;;19.20;44.00;;;;;;8326067;28;20033;-47
2024/01/08 04:36:42;;;;;;;1.20;1.10;;;19.10;44.00;;;;;;8327337;28;20042;-46
2024/01/08 04:40:43;;;;;;;1.63;1.10;;;19.10;44.00;;;;;;8327063;28;20377;-46
2024/01/08 04:44:46;;;;;;;1.10;1.00;;;19.10;44.00;;;;;;8326897;28;20026;-46
2024/01/08 04:48:47;;;;;;;1.17;1.08;;;19.20;44.00;;;;;;8327136;28;20060;-46
2024/01/08 04:52:47;;;;;;;1.20;1.10;;;19.10;44.00;;;;;;8326881;28;20041;-47
2024/01/08 04:56:48;;;;;;;1.45;1.20;;;19.10;44.00;;;;;;8325501;28;20034;-47
2024/01/08 05:00:49;;;;;;;1.23;1.13;;;19.10;44.10;;;;;;8326632;28;20048;-46
2024/01/08 05:04:49;;;;;;;1.10;1.00;;;19.10;44.10;;;;;;8326891;28;20065;-46
2024/01/08 05:08:50;;;;;;;1.35;1.08;;;19.10;44.10;;;;;;8326280;28;20050;-46
2024/01/08 05:12:51;;;;;;;1.20;1.10;;;19.10;44.10;;;;;;8326965;28;20026;-46
2024/01/08 05:16:51;;;;;;;1.20;1.10;;;19.10;44.10;;;;;;8326378;28;20487;-47
2024/01/08 05:20:52;;;;;;;1.30;1.00;;;19.20;44.10;;;;;;8326618;28;20037;-46
2024/01/08 05:24:53;;;;;;;1.40;1.13;;;19.20;44.10;;;;;;8326275;28;20034;-46
2024/01/08 05:28:53;;;;;;;1.15;1.05;;;19.30;44.00;;;;;;8324895;28;20034;-48
2024/01/08 05:32:54;;;;;;;1.35;1.13;;;19.30;44.00;;;;;;8326082;28;20041;-46
2024/01/08 05:36:56;;;;;;;0.88;0.85;;;19.30;43.90;;;;;;8326106;28;20068;-46
2024/01/08 05:40:56;;;;;;;1.13;1.00;;;19.30;43.80;;;;;;8325739;28;20110;-49
2024/01/08 05:44:57;;;;;;;1.35;1.02;;;19.30;43.80;;;;;;8326196;28;20042;-47
2024/01/08 05:48:58;;;;;;;1.20;1.10;;;19.30;43.80;;;;;;8325729;28;20033;-45
2024/01/08 05:53:00;;;;;;;2.03;1.30;;;19.30;43.80;;;;;;8330982;28;20033;-46
2024/01/08 05:57:00;;;;;;;1.55;1.08;;;19.40;43.80;;;;;;8331858;28;20041;-47
2024/01/08 06:01:02;;;;;;;1.35;0.90;;;19.40;43.80;;;;;;8331723;28;20049;-48
2024/01/08 06:05:03;;;;;;;1.45;1.00;;;19.40;43.80;;;;;;8331799;28;20037;-46
2024/01/08 06:09:05;;;;;;;1.10;0.82;;;19.40;43.80;;;;;;8331314;28;20139;-46
2024/01/08 06:13:06;;;;;;;1.38;1.17;;;19.40;43.80;;;;;;8331382;28;20026;-47
2024/01/08 06:17:07;;;;;;;1.17;0.93;;;19.40;43.80;;;;;;8330154;28;20030;-46
2024/01/08 06:21:08;;;;;;;;;;;19.40;43.90;;;;;;8331672;28;20439;-45
2024/01/08 06:25:08;;;;;;;1.23;1.00;;;19.40;43.80;;;;;;8331124;28;20304;-45
2024/01/08 06:29:11;;;;;;;1.20;1.08;;;19.40;43.80;;;;;;8330900;28;20057;-45
2024/01/08 06:33:12;;;;;;;1.45;0.90;;;19.40;43.80;;;;;;8329583;28;20041;-45
2024/01/08 06:37:12;;;;;;;1.20;1.10;;;19.40;43.80;;;;;;8330860;28;20037;-47
2024/01/08 06:41:13;;;;;;;0.98;0.98;;;19.40;43.80;;;;;;8330637;28;20041;-44
2024/01/08 06:45:14;;;;;;;1.42;1.20;;;19.40;43.80;;;;;;8330572;28;20104;-44
2024/01/08 06:49:16;;;;;;;1.08;0.90;;;19.40;43.90;;;;;;8330795;28;20047;-45
2024/01/08 06:53:17;;;;;;;1.25;1.15;;;19.40;43.90;;;;;;8330158;28;20041;-45
2024/01/08 06:57:18;;;;;;;0.80;0.80;;;19.40;43.90;;;;;;8329972;28;20059;-46
2024/01/08 07:01:19;;;;;;;1.02;0.88;;;19.40;43.90;;;;;;8330252;28;20030;-45
2024/01/08 07:05:20;;;;;;;1.33;1.10;;;19.40;43.90;;;;;;8329829;28;20033;-46
2024/01/08 07:09:20;;;;;;;1.60;1.17;;;19.40;43.90;;;;;;8329770;28;20099;-47
2024/01/08 07:13:21;;;;;;;1.00;0.90;;;19.40;43.90;;;;;;8329693;28;20036;-48
2024/01/08 07:17:22;;;;;;;0.93;0.93;;;19.40;43.90;;;;;;8329669;28;20037;-45
2024/01/08 07:21:23;;;;;;;0.88;0.80;;;19.40;44.00;;;;;;8329743;28;20040;-44
2024/01/08 07:25:23;;;;;;;1.30;1.00;;;19.40;43.90;;;;;;8329384;28;20057;-47
2024/01/08 07:29:24;;;;;;;1.10;1.00;;;19.40;44.00;;;;;;8328995;28;20479;-46
2024/01/08 07:33:25;;;;;;;0.82;0.80;;;19.40;44.00;;;;;;8329479;28;20037;-47
2024/01/08 07:37:25;;;;;;;1.65;0.98;;;19.40;44.00;;;;;;8328778;28;20033;-46
2024/01/08 07:41:27;;;;;;;1.15;1.00;;;19.40;44.00;;;;;;8329306;28;20057;-46
2024/01/08 07:45:28;;;;;;;1.05;1.02;;;19.40;44.00;;;;;;8328965;28;20033;-48
2024/01/08 07:49:29;;;;;;;1.00;0.88;;;19.40;44.00;;;;;;8328464;28;20026;-47
2024/01/08 07:53:30;;;;;;;1.40;0.95;;;19.40;44.00;;;;;;8328402;28;20092;-46
2024/01/08 07:57:31;;;;;;;0.90;0.90;;;19.40;44.00;;;;;;8329336;28;20037;-47
2024/01/08 08:01:32;;;;;;;1.10;1.00;;;19.40;44.00;;;;;;8328191;28;20029;-47
2024/01/08 08:05:33;;;;;;;0.93;0.88;;;19.40;44.00;;;;;;8328246;28;20467;-47
2024/01/08 08:09:34;;;;;;;0.85;0.73;;;19.40;44.00;;;;;;8327919;28;20057;-47
2024/01/08 08:13:34;;;;;;;1.50;1.00;;;19.40;44.00;;;;;;8327513;28;20069;-47
2024/01/08 08:17:35;;;;;;;0.95;0.82;;;19.40;44.00;;;;;;8327855;28;20088;-46
2024/01/08 08:21:38;;;;;;;1.10;1.00;;;19.40;44.00;;;;;;8326562;28;20037;-47
2024/01/08 08:25:40;;;;;;;1.30;0.80;;;19.40;44.10;;;;;;8326454;28;20034;-47
2024/01/08 08:29:42;;;;;;;0.80;0.80;;;19.30;44.00;;;;;;8327477;28;20042;-47
2024/01/08 08:33:43;;;;;;;1.23;0.93;;;19.30;44.00;;;;;;8327910;28;20029;-47
2024/01/08 08:37:43;;;;;;;1.05;0.95;;;19.40;44.10;;;;;;8327352;28;20029;-44
2024/01/08 08:41:45;;;;;;;0.90;0.80;;;19.40;44.10;;;;;;8327193;28;20044;-45
2024/01/08 08:45:45;;;;;;;1.10;1.00;;;19.40;44.10;;;;;;8327340;28;20034;-45
2024/01/08 08:49:46;;;;;;;0.70;0.70;;;19.40;44.10;;;;;;8327098;28;20032;-45
2024/01/08 08:53:47;;;;;;;1.23;1.13;;;19.30;44.10;;;;;;8327072;28;20497;-44
2024/01/08 08:57:48;;;;;;;0.82;0.80;;;19.40;44.10;;;;;;8326762;28;20044;-45
2024/01/08 09:01:52;;;;;;;0.82;0.80;;;19.40;44.10;;;;;;8327690;28;20057;-44
2024/01/08 09:05:53;;;;;;;0.90;0.90;;;19.30;44.10;;;;;;8326854;28;20053;-45
2024/01/08 09:09:53;;;;;;;0.73;0.73;;;19.30;44.10;;;;;;8326571;28;20054;-45
2024/01/08 09:13:54;;;;;;;1.10;1.00;;;19.30;44.10;;;;;;8326703;28;20098;-45
2024/01/08 09:17:55;;;;;;;1.38;0.90;;;19.30;44.20;;;;;;8326911;28;20495;-44
2024/01/08 09:21:55;;;;;;;0.85;0.85;;;19.30;44.20;;;;;;8326473;28;20026;-45
2024/01/08 09:25:56;;;;;;;0.88;0.88;;;19.30;44.10;;;;;;8329016;28;20065;-46
2024/01/08 09:29:57;;;;;;;0.70;0.70;;;19.30;44.10;;;;;;8333101;28;20121;-45
2024/01/08 09:33:57;;;;;;;1.08;0.90;;;19.30;44.10;;;;;;8332948;28;20033;-45
2024/01/08 09:37:58;;;;;;;0.80;0.80;;;19.30;44.10;;;;;;8331529;28;20038;-45
2024/01/08 09:42:01;;;;;;;1.15;1.05;;;19.30;44.10;;;;;;8331208;28;20033;-45
2024/01/08 09:46:06;;;;;;;0.70;0.70;;;19.40;44.20;;;;;;8332600;28;20040;-48
2024/01/08 09:50:09;;;;;;;1.00;0.95;;;19.30;44.10;;;;;;8332127;28;20144;-47
2024/01/08 09:54:11;;;;;;;0.80;0.70;;;19.30;44.10;;;;;;8332154;28;20032;-47
2024/01/08 09:58:12;;;;;;;0.95;0.88;;;19.40;44.20;;;;;;8332185;28;20037;-46
2024/01/08 10:02:15;;;;;;;0.75;0.70;;;19.30;44.10;;;;;;8331865;28;20034;-48
2024/01/08 10:06:16;;;;;;;1.15;0.90;;;19.30;44.10;;;;;;8332014;28;20033;-48
2024/01/08 10:10:16;;;;;;;0.80;0.73;;;19.30;44.10;;;;;;8331480;28;20136;-47
2024/01/08 10:14:17;;;;;;;0.73;0.73;;;19.30;44.10;;;;;;8331559;28;20520;-48
2024/01/08 10:18:18;;;;;;;1.30;0.80;;;19.30;44.10;;;;;;8331438;28;20037;-48
2024/01/08 10:22:18;;;;;;;0.70;0.70;;;19.30;44.10;;;;;;8330969;28;20033;-48
2024/01/08 10:26:19;;;;;;;0.70;0.70;;;19.30;44.20;;;;;;8331308;28;20087;-46
2024/01/08 10:30:20;;;;;;;0.82;0.82;;;19.30;44.20;;;;;;8331115;28;20384;-46
2024/01/08 10:34:21;;;;;;;0.88;0.80;;;19.30;44.20;;;;;;8313035;28;20109;-47
2024/01/08 10:38:23;;;;;;;1.00;0.70;;;19.30;44.20;;;;;;8330442;28;20431;-48
2024/01/08 10:42:24;;;;;;;0.70;0.70;;;19.30;44.20;;;;;;8330592;28;20597;-48
2024/01/08 10:46:28;;;;;;;0.77;0.77;;;19.30;44.20;;;;;;8330727;28;20395;-47
2024/01/08 10:50:30;;;;;;;0.93;0.80;;;19.30;44.20;;;;;;8330353;28;20040;-46
2024/01/08 10:54:36;;;;;;;;;;;19.30;44.20;;;;;;8330996;28;20034;-49
2024/01/08 10:58:41;;;;;;;0.70;0.70;;;19.30;44.20;;;;;;8330408;28;20533;-46
2024/01/08 11:02:44;;;;;;;1.13;0.85;;;19.30;44.20;;;;;;8330164;28;20498;-46
2024/01/08 11:06:47;;;;;;;1.10;0.80;;;19.30;44.30;;;;;;8329880;28;20042;-46
2024/01/08 11:10:50;;;;;;;0.95;0.85;;;19.30;44.20;;;;;;8329611;28;20077;-46
2024/01/08 11:15:01;;;;;;;0.65;0.65;;;19.30;44.20;;;;;;8329752;28;20423;-46
2024/01/08 11:19:17;;;;;;;0.65;0.65;;;19.30;44.20;;;;;;8329432;28;20494;-46
2024/01/08 11:23:38;;;;;;;1.20;0.88;;;19.30;44.20;;;;;;8329630;28;20502;-46
2024/01/08 11:27:39;;;;;;;0.85;0.65;;;19.30;44.20;;;;;;8328333;28;20060;-46
2024/01/08 11:31:57;;;;;;;0.80;0.80;;;19.30;44.20;;;;;;8329165;28;20124;-47
2024/01/08 11:36:04;;;;;;;0.88;0.80;;;19.30;44.20;;;;;;8329626;28;20491;-47
2024/01/08 11:40:16;;;;;;;0.82;0.77;;;19.30;44.20;;;;;;8328667;28;20034;-46
2024/01/08 11:44:17;;;;;;;0.73;0.70;;;19.30;44.20;;;;;;8328784;28;20479;-45
2024/01/08 11:48:17;;;;;;;1.05;0.95;;;19.30;44.20;;;;;;8327828;28;20037;-47
2024/01/08 11:52:19;;;;;;;0.70;0.70;;;19.30;44.20;;;;;;8328674;28;20079;-46
2024/01/08 11:56:19;;;;;;;;;;;19.30;44.20;;;;;;8328783;28;20038;-46
2024/01/08 12:00:23;;;;;;;1.10;0.70;;;19.30;44.20;;;;;;8328091;28;20008;-45
2024/01/08 12:04:23;;;;;;;0.75;0.73;;;19.30;44.20;;;;;;8327923;28;20116;-45
2024/01/08 12:08:29;;;;;;;0.80;0.80;;;19.30;44.20;;;;;;8327946;28;20049;-46
2024/01/08 12:12:30;;;;;;;1.02;0.90;;;19.30;44.20;;;;;;8327841;28;20036;-46
2024/01/08 12:16:31;;;;;;;0.77;0.77;;;19.30;44.20;;;;;;8327713;28;20034;-46
2024/01/08 12:20:32;;;;;;;0.88;0.80;;;19.30;44.30;;;;;;8327749;28;20515;-47
2024/01/08 12:24:34;;;;;;;0.82;0.70;;;19.30;44.30;;;;;;8327307;28;20395;-45
2024/01/08 12:28:35;;;;;;;0.85;0.75;;;19.30;44.30;;;;;;8327388;28;20087;-46
2024/01/08 12:32:36;;;;;;;0.85;0.85;;;19.30;44.30;;;;;;8327333;28;20551;-47
2024/01/08 12:36:37;;;;;;;0.70;0.70;;;19.30;44.30;;;;;;8327106;28;20487;-46
2024/01/08 12:40:38;;;;;;;1.05;0.95;;;19.30;44.30;;;;;;8327209;28;20450;-45
2024/01/08 12:44:40;;;;;;;0.82;0.82;;;19.30;44.30;;;;;;8327077;28;20040;-47
2024/01/08 12:48:40;;;;;;;0.65;0.65;;;19.30;44.30;;;;;;8326873;28;20025;-46
2024/01/08 12:52:41;;;;;;;0.73;0.68;;;19.30;44.30;;;;;;8325633;28;20041;-46
2024/01/08 12:56:42;;;;;;;0.88;0.80;;;19.30;44.30;;;;;;8326712;28;20103;-46
2024/01/08 13:00:45;;;;;;;;;;;19.30;44.30;;;;;;8325768;28;20179;-46
2024/01/08 13:04:46;;;;;;;0.82;0.77;;;19.30;44.30;;;;;;8326593;28;19952;-46
2024/01/08 13:08:47;;;;;;;1.02;0.93;;;19.30;44.20;;;;;;8326239;28;20503;-46
2024/01/08 13:12:47;;;;;;;0.70;0.70;;;19.30;44.30;;;;;;8326785;28;20034;-46
2024/01/08 13:16:48;;;;;;;0.82;0.80;;;19.30;44.30;;;;;;8326802;28;20419;-44
2024/01/08 13:20:49;;;;;;;0.98;0.70;;;19.30;44.30;;;;;;8326739;28;20041;-45
2024/01/08 13:24:50;;;;;;;0.70;0.70;;;19.30;44.30;;;;;;8326459;28;20093;-45
2024/01/08 13:28:51;;;;;;;0.85;0.73;;;19.30;44.30;;;;;;8326255;28;20033;-45
2024/01/08 13:32:51;;;;;;;0.80;0.70;;;19.30;44.30;;;;;;8326640;28;20087;-45
2024/01/08 13:36:52;;;;;;;0.77;0.77;;;19.30;44.30;;;;;;8326464;28;20479;-45
2024/01/08 13:40:56;;;;;;;0.93;0.80;;;19.30;44.30;;;;;;8326092;28;20044;-45
2024/01/08 13:44:57;;;;;;;0.93;0.70;;;19.30;44.30;;;;;;8326242;28;20361;-45
2024/01/08 13:48:58;;;;;;;1.20;0.80;;;19.30;44.30;;;;;;8326244;28;20112;-46
2024/01/08 13:52:58;;;;;;;0.80;0.80;;;19.30;44.30;;;;;;8326114;28;20047;-45
2024/01/08 13:56:59;;;;;;;0.85;0.85;;;19.30;44.30;;;;;;8326004;28;20033;-46
2024/01/08 14:01:00;;;;;;;0.68;0.68;;;19.30;44.30;;;;;;8324806;28;20041;-44
2024/01/08 14:05:01;;;;;;;;;;;19.30;44.30;;;;;;8326334;28;20048;-45
2024/01/08 14:09:03;;;;;;;0.73;0.65;;;19.30;44.40;;;;;;8325650;28;20371;-45
2024/01/08 14:13:04;;;;;;;0.77;0.75;;;19.30;44.40;;;;;;8328062;28;20041;-45
2024/01/08 14:17:05;;;;;;;0.65;0.65;;;19.30;44.30;;;;;;8331795;28;20037;-45
2024/01/08 14:21:06;;;;;;;0.60;0.60;;;19.30;44.40;;;;;;8331642;28;20391;-44
2024/01/08 14:25:09;;;;;;;;;;;19.30;44.40;;;;;;8331762;28;20033;-48
2024/01/08 14:29:10;;;;;;;0.60;0.60;;;19.30;44.40;;;;;;8331197;28;19955;-45
2024/01/08 14:33:11;;;;;;;0.80;0.80;;;19.30;44.40;;;;;;8331332;28;20034;-46
2024/01/08 14:37:11;;;;;;;1.27;0.80;;;19.30;44.40;;;;;;8330917;28;20033;-46
2024/01/08 14:41:12;;;;;;;0.50;0.50;;;19.30;44.40;;;;;;8331137;28;20103;-46
2024/01/08 14:45:13;;;;;;;0.70;0.70;;;19.30;44.40;;;;;;8330740;28;20030;-48
2024/01/08 14:49:17;;;;;;;0.90;0.70;;;19.30;44.40;;;;;;8330658;28;20065;-45
2024/01/08 14:53:17;;;;;;;0.88;0.80;;;19.30;44.40;;;;;;8329615;28;20112;-45
2024/01/08 14:57:18;;;;;;;1.15;0.90;;;19.30;44.40;;;;;;8330434;28;20050;-46
2024/01/08 15:01:19;;;;;;;0.80;0.70;;;19.30;44.40;;;;;;8330054;28;20033;-46
2024/01/08 15:05:23;;;;;;;0.82;0.75;;;19.30;44.40;;;;;;8330237;28;20113;-46
2024/01/08 15:09:23;;;;;;;0.80;0.80;;;19.30;44.40;;;;;;8329822;28;20061;-46
2024/01/08 15:13:24;;;;;;;1.58;0.93;;;19.30;44.40;;;;;;8329707;28;20043;-46
2024/01/08 15:17:25;;;;;;;0.80;0.77;;;19.30;44.40;;;;;;8329759;28;20037;-45
2024/01/08 15:21:25;;;;;;;1.02;0.85;;;19.30;44.40;;;;;;8329582;28;20038;-46
2024/01/08 15:25:27;;;;;;;0.60;0.60;;;19.30;44.40;;;;;;8328365;28;20036;-46
2024/01/08 15:29:28;;;;;;;0.75;0.60;;;19.30;44.40;;;;;;8329144;28;20041;-47
2024/01/08 15:33:29;;;;;;;1.33;1.20;;;19.30;44.40;;;;;;8329121;28;20057;-46
2024/01/08 15:37:30;;;;;;;1.17;0.73;;;19.20;44.40;;;;;;8327996;28;20104;-46
2024/01/08 15:41:30;;;;;;;1.27;0.80;;;19.30;44.50;;;;;;8328864;28;20032;-46
2024/01/08 15:45:31;;;;;;;0.60;0.60;;;19.20;44.40;;;;;;8328664;28;20032;-46
2024/01/08 15:49:32;;;;;;;0.70;0.70;;;19.20;44.50;;;;;;8327635;28;20379;-46
2024/01/08 15:53:32;;;;;;;1.00;0.73;;;19.20;44.50;;;;;;8328470;28;20044;-46
2024/01/08 15:57:33;;;;;;;0.73;0.70;;;19.20;44.50;;;;;;8328217;28;20505;-46
2024/01/08 16:01:34;;;;;;;0.50;0.50;;;19.20;44.50;;;;;;8328373;28;20376;-46
2024/01/08 16:05:34;;;;;;;0.65;0.65;;;19.20;44.50;;;;;;8328178;28;20026;-46
2024/01/08 16:09:35;;;;;;;1.15;0.80;;;19.20;44.50;;;;;;8327888;28;20502;-45
2024/01/08 16:13:36;;;;;;;0.80;0.80;;;19.20;44.50;;;;;;8327990;28;20402;-48
2024/01/08 16:17:36;;;;;;;0.70;0.65;;;19.20;44.50;;;;;;8327782;28;20053;-46
2024/01/08 16:21:37;;;;;;;0.90;0.77;;;19.20;44.50;;;;;;8327656;28;20037;-45
2024/01/08 16:25:38;;;;;;;0.90;0.73;;;19.20;44.50;;;;;;8328193;28;20082;-45
2024/01/08 16:29:38;;;;;;;0.70;0.70;;;19.20;44.50;;;;;;8326996;28;20079;-46
2024/01/08 16:33:39;;;;;;;1.13;1.02;;;19.30;44.60;;;;;;8327245;28;20395;-45
2024/01/08 16:37:42;;;;;;;1.10;1.00;;;19.20;44.50;;;;;;8327125;28;20121;-46
2024/01/08 16:41:42;;;;;;;0.90;0.73;;;19.20;44.50;;;;;;8327023;28;20036;-48
2024/01/08 16:45:43;;;;;;;0.80;0.80;;;19.20;44.60;;;;;;8325866;28;20033;-46
2024/01/08 16:49:44;;;;;;;0.80;0.80;;;19.20;44.60;;;;;;8326939;28;20087;-49
2024/01/08 16:53:44;;;;;;;0.77;0.77;;;19.20;44.60;;;;;;8327023;28;20037;-48
2024/01/08 16:57:45;;;;;;;0.70;0.70;;;19.20;44.60;;;;;;8326760;28;20036;-46
2024/01/08 17:01:46;;;;;;;1.33;0.90;;;19.10;44.60;;;;;;8325357;28;20120;-46
2024/01/08 17:05:46;;;;;;;0.73;0.73;;;19.20;44.70;;;;;;8326834;28;20435;-46
2024/01/08 17:09:47;;;;;;;1.10;0.70;;;19.10;44.60;;;;;;8326599;28;20077;-46
2024/01/08 17:13:48;;;;;;;0.80;0.80;;;19.20;44.70;;;;;;8326346;28;20502;-47
2024/01/08 17:17:50;;;;;;;1.50;0.93;;;19.20;44.60;;;;;;8325447;28;20037;-48
2024/01/08 17:21:51;;;;;;;0.57;0.55;;;19.20;44.50;;;;;;8326336;28;20123;-48
2024/01/08 17:25:51;;;;;;;0.90;0.80;;;19.30;44.50;;;;;;8326255;28;20042;-47
2024/01/08 17:29:52;;;;;;;0.80;0.63;;;19.30;44.50;;;;;;8326291;28;20026;-48
2024/01/08 17:33:55;;;;;;;0.50;0.50;;;19.30;44.50;;;;;;8326125;28;20044;-47
2024/01/08 17:37:55;;;;;;;0.80;0.70;;;19.30;44.50;;;;;;8324906;28;20116;-48
2024/01/08 17:41:57;;;;;;;0.68;0.60;;;19.30;44.50;;;;;;8325802;28;20479;-48
2024/01/08 17:45:58;;;;;;;0.80;0.80;;;19.30;44.50;;;;;;8326631;28;20037;-48
2024/01/08 17:49:59;;;;;;;1.20;0.88;;;19.20;44.50;;;;;;8332426;28;20029;-49
2024/01/08 17:54:00;;;;;;;1.08;0.90;;;19.30;44.50;;;;;;8330779;28;20029;-47
2024/01/08 17:58:00;;;;;;;1.58;0.70;;;19.20;44.50;;;;;;8331909;28;20038;-45
2024/01/08 18:02:01;;;;;;;1.08;0.90;;;19.20;44.50;;;;;;8331842;28;20394;-46
2024/01/08 18:06:03;;;;;;;0.70;0.70;;;19.30;44.50;;;;;;8332074;28;20026;-45
2024/01/08 18:10:04;;;;;;;1.05;0.90;;;19.30;44.50;;;;;;8331529;28;20045;-45
2024/01/08 18:14:07;;;;;;;0.57;0.50;;;19.30;44.50;;;;;;8330175;28;20116;-44
2024/01/08 18:18:09;;;;;;;0.82;0.82;;;19.30;44.60;;;;;;8331577;28;20056;-45
2024/01/08 18:22:10;;;;;;;0.75;0.75;;;19.30;44.60;;;;;;8331497;28;20068;-44
2024/01/08 18:26:11;;;;;;;1.13;0.90;;;19.20;44.50;;;;;;8331494;28;20041;-45
2024/01/08 18:30:13;;;;;;;0.60;0.60;;;19.30;44.60;;;;;;8329774;28;20124;-45
2024/01/08 18:34:15;;;;;;;0.55;0.55;;;19.20;44.50;;;;;;8331144;28;20544;-46
2024/01/08 18:38:16;;;;;;;0.70;0.70;;;19.20;44.60;;;;;;8331054;28;20471;-44
2024/01/08 18:42:17;;;;;;;0.70;0.70;;;19.20;44.60;;;;;;8330767;28;20041;-44
2024/01/08 18:46:18;;;;;;;1.05;1.00;;;19.20;44.60;;;;;;8330924;28;20060;-44
2024/01/08 18:50:19;;;;;;;0.55;0.55;;;19.20;44.60;;;;;;8330556;28;20101;-45
2024/01/08 18:54:19;;;;;;;1.20;1.10;;;19.30;44.60;;;;;;8330567;28;20029;-46
2024/01/08 18:58:20;;;;;;;0.70;0.70;;;19.20;44.60;;;;;;8328881;28;20034;-45
2024/01/08 19:02:21;;;;;;;0.70;0.65;;;19.30;44.60;;;;;;8328801;28;20037;-45
2024/01/08 19:06:25;;;;;;;0.90;0.75;;;19.30;44.60;;;;;;8329052;28;20040;-45
2024/01/08 19:10:26;;;;;;;1.10;0.80;;;19.20;44.60;;;;;;8329900;28;20050;-46
2024/01/08 19:14:27;;;;;;;0.80;0.80;;;19.20;44.60;;;;;;8329625;28;20033;-45
2024/01/08 19:18:28;;;;;;;0.73;0.73;;;19.20;44.60;;;;;;8328510;28;20396;-46
2024/01/08 19:22:28;;;;;;;1.05;0.95;;;19.20;44.70;;;;;;8328034;28;20377;-46
2024/01/08 19:26:29;;;;;;;0.95;0.65;;;19.20;44.70;;;;;;8328353;28;20437;-46
2024/01/08 19:30:30;;;;;;;1.15;0.70;;;19.10;44.70;;;;;;8329245;28;20037;-46
2024/01/08 19:34:31;;;;;;;1.95;1.45;;;19.10;44.80;;;;;;8328214;28;20037;-46
2024/01/08 19:38:32;;;;;;;1.77;1.55;;;19.00;44.90;;;;;;8331380;28;20515;-47
2024/01/08 19:42:33;;;;;;;1.70;1.30;;;19.00;44.40;;;;;;8324251;28;20472;-45
2024/01/08 19:46:34;;;;;;;1.30;1.20;;;19.20;43.50;;;;;;8301403;28;20463;-46
2024/01/08 19:50:35;;;;;;;1.42;1.13;;;19.20;43.40;;;;;;8323902;28;20044;-46
2024/01/08 19:54:35;;;;;;;2.08;1.40;;;19.30;43.50;;;;;;8325122;28;20029;-48
2024/01/08 19:58:36;;;;;;;1.48;1.38;;;19.30;43.50;;;;;;8325059;28;20033;-47
2024/01/08 20:02:37;;;;;;;1.98;1.35;;;19.40;43.60;;;;;;8324491;28;20099;-46
2024/01/08 20:06:37;;;;;;;3.25;1.40;;;19.50;43.60;;;;;;8325107;28;20112;-46
2024/01/08 20:10:38;;;;;;;1.40;1.30;;;19.50;43.60;;;;;;8323981;28;20127;-47
2024/01/08 20:14:40;;;;;;;0.90;0.90;;;19.50;43.70;;;;;;8324463;28;20147;-48
2024/01/08 20:18:40;;;;;;;2.08;1.20;;;19.50;43.70;;;;;;8324317;28;20060;-50
2024/01/08 20:22:41;;;;;;;2.08;1.20;;;19.50;43.80;;;;;;8323951;28;20029;-47
2024/01/08 20:26:42;;;;;;;5.15;1.30;;;19.50;43.70;;;;;;8324332;28;20029;-48
2024/01/08 20:30:42;;;;;;;1.55;1.20;;;19.50;43.80;;;;;;8324146;28;20046;-48
2024/01/08 20:34:43;;;;;;;4.80;1.75;;;19.60;43.70;;;;;;8323064;28;20033;-49
2024/01/08 20:38:44;;;;;;;1.33;1.20;;;19.60;43.80;;;;;;8323599;28;20099;-50
2024/01/08 20:42:44;;;;;;;2.15;1.10;;;19.60;43.90;;;;;;8322131;28;20409;-45
2024/01/08 20:46:46;;;;;;;3.22;1.13;;;19.60;43.70;;;;;;8323917;28;20509;-47
2024/01/08 20:50:47;;;;;;;1.30;1.17;;;19.60;43.70;;;;;;8323904;28;20147;-48
2024/01/08 20:54:47;;;;;;;1.15;1.05;;;19.70;43.80;;;;;;8323550;28;20594;-48
2024/01/08 20:58:48;;;;;;;1.10;1.00;;;19.60;43.80;;;;;;8323474;28;20056;-48